sensor_id;sensor_type;location;lat;lon;timestamp;P1;durP1;ratioP1;P2;durP2;ratioP2
27402;SDS011;14862;49.494;8.530;2023-03-14T00:00:31;2.38;;;0.77;;
27402;SDS011;14862;49.494;8.530;2023-03-14T00:02:56;1.73;;;1.13;;
27402;SDS011;14862;49.494;8.530;2023-03-14T00:05:21;1.70;;;1.00;;
27402;SDS011;14862;49.494;8.530;2023-03-14T00:07:47;1.55;;;1.02;;
27402;SDS011;14862;49.494;8.530;2023-03-14T00:10:13;1.23;;;0.83;;
27402;SDS011;14862;49.494;8.530;2023-03-14T00:12:39;2.60;;;0.70;;
27402;SDS011;14862;49.494;8.530;2023-03-14T00:15:04;1.10;;;0.80;;
27402;SDS011;14862;49.494;8.530;2023-03-14T00:17:31;2.60;;;0.93;;
27402;SDS011;14862;49.494;8.530;2023-03-14T00:19:57;1.75;;;1.20;;
27402;SDS011;14862;49.494;8.530;2023-03-14T00:22:27;2.20;;;0.70;;
27402;SDS011;14862;49.494;8.530;2023-03-14T00:24:52;1.77;;;0.90;;
27402;SDS011;14862;49.494;8.530;2023-03-14T00:27:17;1.80;;;1.00;;
27402;SDS011;14862;49.494;8.530;2023-03-14T00:29:42;1.65;;;0.90;;
27402;SDS011;14862;49.494;8.530;2023-03-14T00:32:08;0.52;;;0.52;;
27402;SDS011;14862;49.494;8.530;2023-03-14T00:34:34;1.90;;;0.88;;
27402;SDS011;14862;49.494;8.530;2023-03-14T00:36:59;3.95;;;1.13;;
27402;SDS011;14862;49.494;8.530;2023-03-14T00:39:24;0.95;;;0.80;;
27402;SDS011;14862;49.494;8.530;2023-03-14T00:41:49;0.87;;;0.70;;
27402;SDS011;14862;49.494;8.530;2023-03-14T00:44:14;2.97;;;0.90;;
27402;SDS011;14862;49.494;8.530;2023-03-14T00:46:40;2.15;;;1.08;;
27402;SDS011;14862;49.494;8.530;2023-03-14T00:49:05;1.95;;;1.00;;
27402;SDS011;14862;49.494;8.530;2023-03-14T00:51:30;0.93;;;0.65;;
27402;SDS011;14862;49.494;8.530;2023-03-14T00:53:55;1.02;;;0.93;;
27402;SDS011;14862;49.494;8.530;2023-03-14T00:56:21;1.38;;;0.82;;
27402;SDS011;14862;49.494;8.530;2023-03-14T00:58:46;3.55;;;0.98;;
27402;SDS011;14862;49.494;8.530;2023-03-14T01:01:15;1.75;;;1.10;;
27402;SDS011;14862;49.494;8.530;2023-03-14T01:03:40;1.30;;;0.95;;
27402;SDS011;14862;49.494;8.530;2023-03-14T01:06:09;1.70;;;0.82;;
27402;SDS011;14862;49.494;8.530;2023-03-14T01:08:35;0.98;;;0.95;;
27402;SDS011;14862;49.494;8.530;2023-03-14T01:11:04;0.83;;;0.70;;
27402;SDS011;14862;49.494;8.530;2023-03-14T01:13:29;3.10;;;1.00;;
27402;SDS011;14862;49.494;8.530;2023-03-14T01:15:54;3.63;;;0.97;;
27402;SDS011;14862;49.494;8.530;2023-03-14T01:18:19;3.30;;;0.82;;
27402;SDS011;14862;49.494;8.530;2023-03-14T01:20:45;1.50;;;0.83;;
27402;SDS011;14862;49.494;8.530;2023-03-14T01:23:10;2.08;;;1.02;;
27402;SDS011;14862;49.494;8.530;2023-03-14T01:25:40;0.75;;;0.70;;
27402;SDS011;14862;49.494;8.530;2023-03-14T01:28:05;1.17;;;1.02;;
27402;SDS011;14862;49.494;8.530;2023-03-14T01:30:30;1.35;;;1.00;;
27402;SDS011;14862;49.494;8.530;2023-03-14T01:32:55;3.47;;;0.82;;
27402;SDS011;14862;49.494;8.530;2023-03-14T01:35:21;1.10;;;0.70;;
27402;SDS011;14862;49.494;8.530;2023-03-14T01:37:46;2.00;;;0.90;;
27402;SDS011;14862;49.494;8.530;2023-03-14T01:40:11;2.65;;;1.27;;
27402;SDS011;14862;49.494;8.530;2023-03-14T01:42:43;3.80;;;1.35;;
27402;SDS011;14862;49.494;8.530;2023-03-14T01:47:53;1.48;;;0.98;;
27402;SDS011;14862;49.494;8.530;2023-03-14T01:50:18;5.03;;;1.10;;
27402;SDS011;14862;49.494;8.530;2023-03-14T01:52:44;4.18;;;1.20;;
27402;SDS011;14862;49.494;8.530;2023-03-14T01:55:19;2.05;;;1.00;;
27402;SDS011;14862;49.494;8.530;2023-03-14T01:57:49;0.80;;;0.80;;
27402;SDS011;14862;49.494;8.530;2023-03-14T02:00:17;2.35;;;1.00;;
27402;SDS011;14862;49.494;8.530;2023-03-14T02:02:46;0.82;;;0.82;;
27402;SDS011;14862;49.494;8.530;2023-03-14T02:05:12;1.30;;;0.90;;
27402;SDS011;14862;49.494;8.530;2023-03-14T02:07:48;2.47;;;1.30;;
27402;SDS011;14862;49.494;8.530;2023-03-14T02:10:14;4.60;;;1.05;;
27402;SDS011;14862;49.494;8.530;2023-03-14T02:12:39;4.68;;;1.08;;
27402;SDS011;14862;49.494;8.530;2023-03-14T02:15:05;3.72;;;1.35;;
27402;SDS011;14862;49.494;8.530;2023-03-14T02:17:30;4.05;;;1.20;;
27402;SDS011;14862;49.494;8.530;2023-03-14T02:22:21;2.87;;;1.00;;
27402;SDS011;14862;49.494;8.530;2023-03-14T02:24:49;4.05;;;1.20;;
27402;SDS011;14862;49.494;8.530;2023-03-14T02:27:16;1.42;;;0.80;;
27402;SDS011;14862;49.494;8.530;2023-03-14T02:30:01;1.70;;;1.15;;
27402;SDS011;14862;49.494;8.530;2023-03-14T02:32:28;4.60;;;1.23;;
27402;SDS011;14862;49.494;8.530;2023-03-14T02:34:55;2.42;;;0.90;;
27402;SDS011;14862;49.494;8.530;2023-03-14T02:37:22;3.10;;;1.00;;
27402;SDS011;14862;49.494;8.530;2023-03-14T02:39:48;4.32;;;1.00;;
27402;SDS011;14862;49.494;8.530;2023-03-14T02:42:14;1.80;;;1.10;;
27402;SDS011;14862;49.494;8.530;2023-03-14T02:44:50;1.83;;;0.95;;
27402;SDS011;14862;49.494;8.530;2023-03-14T02:47:16;4.07;;;1.20;;
27402;SDS011;14862;49.494;8.530;2023-03-14T02:49:41;2.67;;;0.90;;
27402;SDS011;14862;49.494;8.530;2023-03-14T02:52:06;3.20;;;1.05;;
27402;SDS011;14862;49.494;8.530;2023-03-14T02:54:32;3.95;;;1.35;;
27402;SDS011;14862;49.494;8.530;2023-03-14T02:56:57;2.97;;;1.20;;
27402;SDS011;14862;49.494;8.530;2023-03-14T02:59:22;4.00;;;1.43;;
27402;SDS011;14862;49.494;8.530;2023-03-14T03:01:47;3.43;;;1.00;;
27402;SDS011;14862;49.494;8.530;2023-03-14T03:04:12;3.90;;;1.13;;
27402;SDS011;14862;49.494;8.530;2023-03-14T03:06:38;3.75;;;1.40;;
27402;SDS011;14862;49.494;8.530;2023-03-14T03:09:03;2.47;;;0.98;;
27402;SDS011;14862;49.494;8.530;2023-03-14T03:11:28;10.15;;;1.45;;
27402;SDS011;14862;49.494;8.530;2023-03-14T03:13:53;4.85;;;1.27;;
27402;SDS011;14862;49.494;8.530;2023-03-14T03:16:18;4.47;;;1.20;;
27402;SDS011;14862;49.494;8.530;2023-03-14T03:18:44;3.13;;;1.00;;
27402;SDS011;14862;49.494;8.530;2023-03-14T03:21:09;3.90;;;1.27;;
27402;SDS011;14862;49.494;8.530;2023-03-14T03:23:34;3.35;;;0.93;;
27402;SDS011;14862;49.494;8.530;2023-03-14T03:26:00;4.70;;;1.23;;
27402;SDS011;14862;49.494;8.530;2023-03-14T03:28:25;4.22;;;1.67;;
27402;SDS011;14862;49.494;8.530;2023-03-14T03:30:50;3.77;;;1.20;;
27402;SDS011;14862;49.494;8.530;2023-03-14T03:33:15;2.38;;;1.10;;
27402;SDS011;14862;49.494;8.530;2023-03-14T03:35:41;3.38;;;1.42;;
27402;SDS011;14862;49.494;8.530;2023-03-14T03:38:07;3.63;;;1.30;;
27402;SDS011;14862;49.494;8.530;2023-03-14T03:40:32;3.28;;;1.35;;
27402;SDS011;14862;49.494;8.530;2023-03-14T03:42:57;6.93;;;1.70;;
27402;SDS011;14862;49.494;8.530;2023-03-14T03:45:22;5.57;;;1.80;;
27402;SDS011;14862;49.494;8.530;2023-03-14T03:47:47;4.57;;;1.42;;
27402;SDS011;14862;49.494;8.530;2023-03-14T03:50:13;4.90;;;1.50;;
27402;SDS011;14862;49.494;8.530;2023-03-14T03:52:38;4.57;;;1.85;;
27402;SDS011;14862;49.494;8.530;2023-03-14T03:55:03;3.65;;;1.33;;
27402;SDS011;14862;49.494;8.530;2023-03-14T03:57:28;5.28;;;1.50;;
27402;SDS011;14862;49.494;8.530;2023-03-14T03:59:54;3.28;;;1.40;;
27402;SDS011;14862;49.494;8.530;2023-03-14T04:02:19;3.80;;;1.50;;
27402;SDS011;14862;49.494;8.530;2023-03-14T04:04:44;4.63;;;1.40;;
27402;SDS011;14862;49.494;8.530;2023-03-14T04:07:09;5.83;;;1.70;;
27402;SDS011;14862;49.494;8.530;2023-03-14T04:09:36;5.80;;;1.55;;
27402;SDS011;14862;49.494;8.530;2023-03-14T04:12:02;2.00;;;1.15;;
27402;SDS011;14862;49.494;8.530;2023-03-14T04:14:27;3.92;;;1.35;;
27402;SDS011;14862;49.494;8.530;2023-03-14T04:16:52;2.13;;;1.10;;
27402;SDS011;14862;49.494;8.530;2023-03-14T04:19:17;4.40;;;1.57;;
27402;SDS011;14862;49.494;8.530;2023-03-14T04:21:43;2.85;;;1.30;;
27402;SDS011;14862;49.494;8.530;2023-03-14T04:24:10;1.80;;;0.98;;
27402;SDS011;14862;49.494;8.530;2023-03-14T04:26:35;3.55;;;1.63;;
27402;SDS011;14862;49.494;8.530;2023-03-14T04:29:00;4.95;;;1.13;;
27402;SDS011;14862;49.494;8.530;2023-03-14T04:31:26;2.42;;;1.15;;
27402;SDS011;14862;49.494;8.530;2023-03-14T04:33:51;2.08;;;1.02;;
27402;SDS011;14862;49.494;8.530;2023-03-14T04:36:16;3.10;;;1.10;;
27402;SDS011;14862;49.494;8.530;2023-03-14T04:38:41;1.95;;;1.20;;
27402;SDS011;14862;49.494;8.530;2023-03-14T04:41:06;4.05;;;1.70;;
27402;SDS011;14862;49.494;8.530;2023-03-14T04:43:32;3.13;;;1.10;;
27402;SDS011;14862;49.494;8.530;2023-03-14T04:45:57;4.88;;;1.25;;
27402;SDS011;14862;49.494;8.530;2023-03-14T04:48:23;3.92;;;1.20;;
27402;SDS011;14862;49.494;8.530;2023-03-14T04:50:49;3.67;;;1.25;;
27402;SDS011;14862;49.494;8.530;2023-03-14T04:53:14;9.98;;;1.40;;
27402;SDS011;14862;49.494;8.530;2023-03-14T04:55:40;5.03;;;1.25;;
27402;SDS011;14862;49.494;8.530;2023-03-14T04:58:05;6.07;;;2.25;;
27402;SDS011;14862;49.494;8.530;2023-03-14T05:00:30;4.80;;;1.38;;
27402;SDS011;14862;49.494;8.530;2023-03-14T05:02:55;4.85;;;1.20;;
27402;SDS011;14862;49.494;8.530;2023-03-14T05:05:21;6.25;;;1.10;;
27402;SDS011;14862;49.494;8.530;2023-03-14T05:07:46;3.22;;;1.33;;
27402;SDS011;14862;49.494;8.530;2023-03-14T05:10:11;2.72;;;1.50;;
27402;SDS011;14862;49.494;8.530;2023-03-14T05:12:37;3.67;;;1.27;;
27402;SDS011;14862;49.494;8.530;2023-03-14T05:15:02;1.80;;;1.50;;
27402;SDS011;14862;49.494;8.530;2023-03-14T05:17:29;2.60;;;1.40;;
27402;SDS011;14862;49.494;8.530;2023-03-14T05:19:54;1.83;;;1.02;;
27402;SDS011;14862;49.494;8.530;2023-03-14T05:22:19;1.60;;;1.20;;
27402;SDS011;14862;49.494;8.530;2023-03-14T05:24:44;3.13;;;1.53;;
27402;SDS011;14862;49.494;8.530;2023-03-14T05:27:10;2.88;;;1.38;;
27402;SDS011;14862;49.494;8.530;2023-03-14T05:29:35;5.30;;;1.55;;
27402;SDS011;14862;49.494;8.530;2023-03-14T05:32:00;2.60;;;1.02;;
27402;SDS011;14862;49.494;8.530;2023-03-14T05:34:26;7.13;;;1.33;;
27402;SDS011;14862;49.494;8.530;2023-03-14T05:36:51;2.33;;;1.00;;
27402;SDS011;14862;49.494;8.530;2023-03-14T05:39:16;2.90;;;0.73;;
27402;SDS011;14862;49.494;8.530;2023-03-14T05:41:41;3.17;;;1.10;;
27402;SDS011;14862;49.494;8.530;2023-03-14T05:44:07;4.18;;;0.95;;
27402;SDS011;14862;49.494;8.530;2023-03-14T05:46:32;4.82;;;1.20;;
27402;SDS011;14862;49.494;8.530;2023-03-14T05:48:57;7.25;;;1.23;;
27402;SDS011;14862;49.494;8.530;2023-03-14T05:51:23;3.65;;;0.93;;
27402;SDS011;14862;49.494;8.530;2023-03-14T05:53:48;3.53;;;1.15;;
27402;SDS011;14862;49.494;8.530;2023-03-14T05:56:13;4.93;;;1.40;;
27402;SDS011;14862;49.494;8.530;2023-03-14T05:58:39;1.85;;;1.08;;
27402;SDS011;14862;49.494;8.530;2023-03-14T06:01:04;3.03;;;1.08;;
27402;SDS011;14862;49.494;8.530;2023-03-14T06:03:30;2.97;;;0.90;;
27402;SDS011;14862;49.494;8.530;2023-03-14T06:05:56;6.05;;;0.90;;
27402;SDS011;14862;49.494;8.530;2023-03-14T06:08:21;1.95;;;1.10;;
27402;SDS011;14862;49.494;8.530;2023-03-14T06:10:46;4.10;;;1.10;;
27402;SDS011;14862;49.494;8.530;2023-03-14T06:13:11;3.33;;;0.90;;
27402;SDS011;14862;49.494;8.530;2023-03-14T06:15:37;8.07;;;1.40;;
27402;SDS011;14862;49.494;8.530;2023-03-14T06:18:02;4.10;;;0.73;;
27402;SDS011;14862;49.494;8.530;2023-03-14T06:20:27;3.78;;;1.10;;
27402;SDS011;14862;49.494;8.530;2023-03-14T06:22:52;3.13;;;0.90;;
27402;SDS011;14862;49.494;8.530;2023-03-14T06:25:18;2.20;;;0.93;;
27402;SDS011;14862;49.494;8.530;2023-03-14T06:27:43;3.47;;;1.20;;
27402;SDS011;14862;49.494;8.530;2023-03-14T06:30:09;4.75;;;1.20;;
27402;SDS011;14862;49.494;8.530;2023-03-14T06:32:35;3.15;;;1.42;;
27402;SDS011;14862;49.494;8.530;2023-03-14T06:35:00;8.03;;;1.63;;
27402;SDS011;14862;49.494;8.530;2023-03-14T06:37:26;3.38;;;1.38;;
27402;SDS011;14862;49.494;8.530;2023-03-14T06:39:52;4.93;;;1.85;;
27402;SDS011;14862;49.494;8.530;2023-03-14T06:42:17;3.83;;;1.00;;
27402;SDS011;14862;49.494;8.530;2023-03-14T06:44:42;2.78;;;1.75;;
27402;SDS011;14862;49.494;8.530;2023-03-14T06:47:08;4.82;;;1.63;;
27402;SDS011;14862;49.494;8.530;2023-03-14T06:49:33;4.47;;;1.43;;
27402;SDS011;14862;49.494;8.530;2023-03-14T06:51:58;4.63;;;1.00;;
27402;SDS011;14862;49.494;8.530;2023-03-14T06:54:23;4.80;;;1.38;;
27402;SDS011;14862;49.494;8.530;2023-03-14T06:56:48;3.50;;;1.15;;
27402;SDS011;14862;49.494;8.530;2023-03-14T06:59:14;3.85;;;1.15;;
27402;SDS011;14862;49.494;8.530;2023-03-14T07:01:39;4.85;;;0.95;;
27402;SDS011;14862;49.494;8.530;2023-03-14T07:04:05;3.72;;;1.00;;
27402;SDS011;14862;49.494;8.530;2023-03-14T07:06:30;5.40;;;1.33;;
27402;SDS011;14862;49.494;8.530;2023-03-14T07:08:56;7.07;;;1.13;;
27402;SDS011;14862;49.494;8.530;2023-03-14T07:11:21;9.05;;;1.35;;
27402;SDS011;14862;49.494;8.530;2023-03-14T07:13:46;3.97;;;1.27;;
27402;SDS011;14862;49.494;8.530;2023-03-14T07:16:12;3.58;;;1.00;;
27402;SDS011;14862;49.494;8.530;2023-03-14T07:18:37;5.00;;;0.93;;
27402;SDS011;14862;49.494;8.530;2023-03-14T07:21:02;2.53;;;1.00;;
27402;SDS011;14862;49.494;8.530;2023-03-14T07:23:27;4.03;;;1.30;;
27402;SDS011;14862;49.494;8.530;2023-03-14T07:25:53;4.70;;;1.63;;
27402;SDS011;14862;49.494;8.530;2023-03-14T07:28:18;5.75;;;1.30;;
27402;SDS011;14862;49.494;8.530;2023-03-14T07:30:45;3.88;;;1.42;;
27402;SDS011;14862;49.494;8.530;2023-03-14T07:33:11;4.53;;;1.70;;
27402;SDS011;14862;49.494;8.530;2023-03-14T07:35:36;1.40;;;0.70;;
27402;SDS011;14862;49.494;8.530;2023-03-14T07:38:02;4.15;;;1.05;;
27402;SDS011;14862;49.494;8.530;2023-03-14T07:40:27;4.35;;;1.02;;
27402;SDS011;14862;49.494;8.530;2023-03-14T07:42:52;4.80;;;1.30;;
27402;SDS011;14862;49.494;8.530;2023-03-14T07:45:20;4.10;;;1.00;;
27402;SDS011;14862;49.494;8.530;2023-03-14T07:47:45;4.88;;;1.10;;
27402;SDS011;14862;49.494;8.530;2023-03-14T07:50:10;3.45;;;0.90;;
27402;SDS011;14862;49.494;8.530;2023-03-14T07:52:35;2.38;;;0.77;;
27402;SDS011;14862;49.494;8.530;2023-03-14T07:55:00;6.53;;;1.20;;
27402;SDS011;14862;49.494;8.530;2023-03-14T07:57:26;4.45;;;0.95;;
27402;SDS011;14862;49.494;8.530;2023-03-14T07:59:51;5.80;;;0.90;;
27402;SDS011;14862;49.494;8.530;2023-03-14T08:02:16;3.15;;;1.25;;
27402;SDS011;14862;49.494;8.530;2023-03-14T08:04:42;4.32;;;1.20;;
27402;SDS011;14862;49.494;8.530;2023-03-14T08:07:08;2.17;;;0.70;;
27402;SDS011;14862;49.494;8.530;2023-03-14T08:09:33;3.00;;;0.93;;
27402;SDS011;14862;49.494;8.530;2023-03-14T08:11:58;5.80;;;0.90;;
27402;SDS011;14862;49.494;8.530;2023-03-14T08:14:23;3.40;;;0.95;;
27402;SDS011;14862;49.494;8.530;2023-03-14T08:16:49;2.28;;;0.90;;
27402;SDS011;14862;49.494;8.530;2023-03-14T08:19:14;2.70;;;0.90;;
27402;SDS011;14862;49.494;8.530;2023-03-14T08:21:40;3.05;;;0.88;;
27402;SDS011;14862;49.494;8.530;2023-03-14T08:24:05;2.43;;;0.70;;
27402;SDS011;14862;49.494;8.530;2023-03-14T08:26:31;5.47;;;1.05;;
27402;SDS011;14862;49.494;8.530;2023-03-14T08:28:56;3.13;;;0.55;;
27402;SDS011;14862;49.494;8.530;2023-03-14T08:31:21;2.95;;;0.68;;
27402;SDS011;14862;49.494;8.530;2023-03-14T08:33:47;3.47;;;0.95;;
27402;SDS011;14862;49.494;8.530;2023-03-14T08:36:13;4.13;;;1.33;;
27402;SDS011;14862;49.494;8.530;2023-03-14T08:38:38;1.30;;;0.63;;
27402;SDS011;14862;49.494;8.530;2023-03-14T08:41:03;3.55;;;1.10;;
27402;SDS011;14862;49.494;8.530;2023-03-14T08:43:29;3.40;;;0.90;;
27402;SDS011;14862;49.494;8.530;2023-03-14T08:45:57;4.22;;;0.70;;
27402;SDS011;14862;49.494;8.530;2023-03-14T08:48:22;2.95;;;0.85;;
27402;SDS011;14862;49.494;8.530;2023-03-14T08:50:48;1.35;;;0.63;;
27402;SDS011;14862;49.494;8.530;2023-03-14T08:53:13;1.80;;;0.70;;
27402;SDS011;14862;49.494;8.530;2023-03-14T08:55:38;3.42;;;1.00;;
27402;SDS011;14862;49.494;8.530;2023-03-14T08:58:04;3.47;;;1.13;;
27402;SDS011;14862;49.494;8.530;2023-03-14T09:00:29;4.47;;;0.70;;
27402;SDS011;14862;49.494;8.530;2023-03-14T09:02:54;2.72;;;0.90;;
27402;SDS011;14862;49.494;8.530;2023-03-14T09:05:19;0.98;;;0.50;;
27402;SDS011;14862;49.494;8.530;2023-03-14T09:07:45;3.15;;;0.95;;
27402;SDS011;14862;49.494;8.530;2023-03-14T09:10:10;3.22;;;0.82;;
27402;SDS011;14862;49.494;8.530;2023-03-14T09:12:35;2.55;;;0.52;;
27402;SDS011;14862;49.494;8.530;2023-03-14T09:15:01;2.53;;;0.60;;
27402;SDS011;14862;49.494;8.530;2023-03-14T09:17:26;1.55;;;0.70;;
27402;SDS011;14862;49.494;8.530;2023-03-14T09:19:51;3.80;;;1.50;;
27402;SDS011;14862;49.494;8.530;2023-03-14T09:22:17;1.88;;;0.70;;
27402;SDS011;14862;49.494;8.530;2023-03-14T09:24:42;1.25;;;0.60;;
27402;SDS011;14862;49.494;8.530;2023-03-14T09:27:07;0.70;;;0.60;;
27402;SDS011;14862;49.494;8.530;2023-03-14T09:29:33;1.60;;;0.28;;
27402;SDS011;14862;49.494;8.530;2023-03-14T09:31:58;0.80;;;0.40;;
27402;SDS011;14862;49.494;8.530;2023-03-14T09:34:24;1.50;;;0.50;;
27402;SDS011;14862;49.494;8.530;2023-03-14T09:36:49;2.92;;;0.65;;
27402;SDS011;14862;49.494;8.530;2023-03-14T09:39:14;2.40;;;0.50;;
27402;SDS011;14862;49.494;8.530;2023-03-14T09:41:43;1.60;;;0.55;;
27402;SDS011;14862;49.494;8.530;2023-03-14T09:44:16;3.17;;;0.50;;
27402;SDS011;14862;49.494;8.530;2023-03-14T09:46:45;0.85;;;0.47;;
27402;SDS011;14862;49.494;8.530;2023-03-14T09:49:23;1.08;;;0.75;;
27402;SDS011;14862;49.494;8.530;2023-03-14T09:51:50;2.35;;;0.40;;
27402;SDS011;14862;49.494;8.530;2023-03-14T09:54:26;1.05;;;0.57;;
27402;SDS011;14862;49.494;8.530;2023-03-14T09:56:54;2.53;;;0.75;;
27402;SDS011;14862;49.494;8.530;2023-03-14T09:59:20;1.35;;;0.75;;
27402;SDS011;14862;49.494;8.530;2023-03-14T10:01:45;2.05;;;0.55;;
27402;SDS011;14862;49.494;8.530;2023-03-14T10:04:12;1.85;;;0.82;;
27402;SDS011;14862;49.494;8.530;2023-03-14T10:06:39;3.95;;;0.70;;
27402;SDS011;14862;49.494;8.530;2023-03-14T10:09:04;0.65;;;0.52;;
27402;SDS011;14862;49.494;8.530;2023-03-14T10:11:31;1.98;;;0.43;;
27402;SDS011;14862;49.494;8.530;2023-03-14T10:16:29;1.45;;;0.80;;
27402;SDS011;14862;49.494;8.530;2023-03-14T10:18:59;0.95;;;0.57;;
27402;SDS011;14862;49.494;8.530;2023-03-14T10:21:26;1.52;;;0.63;;
27402;SDS011;14862;49.494;8.530;2023-03-14T10:23:52;1.08;;;0.40;;
27402;SDS011;14862;49.494;8.530;2023-03-14T10:26:19;1.07;;;0.40;;
27402;SDS011;14862;49.494;8.530;2023-03-14T10:28:51;2.17;;;0.65;;
27402;SDS011;14862;49.494;8.530;2023-03-14T10:31:16;0.57;;;0.55;;
27402;SDS011;14862;49.494;8.530;2023-03-14T10:33:42;0.38;;;0.30;;
27402;SDS011;14862;49.494;8.530;2023-03-14T10:36:23;0.65;;;0.50;;
27402;SDS011;14862;49.494;8.530;2023-03-14T10:38:50;0.60;;;0.50;;
27402;SDS011;14862;49.494;8.530;2023-03-14T10:41:25;1.25;;;0.52;;
27402;SDS011;14862;49.494;8.530;2023-03-14T10:43:51;0.93;;;0.50;;
27402;SDS011;14862;49.494;8.530;2023-03-14T10:46:19;1.63;;;0.63;;
27402;SDS011;14862;49.494;8.530;2023-03-14T10:48:45;1.42;;;0.60;;
27402;SDS011;14862;49.494;8.530;2023-03-14T10:53:46;2.10;;;0.55;;
27402;SDS011;14862;49.494;8.530;2023-03-14T10:56:17;1.08;;;0.40;;
27402;SDS011;14862;49.494;8.530;2023-03-14T10:58:43;1.00;;;0.57;;
27402;SDS011;14862;49.494;8.530;2023-03-14T11:03:34;1.58;;;0.40;;
27402;SDS011;14862;49.494;8.530;2023-03-14T11:08:37;0.70;;;0.50;;
27402;SDS011;14862;49.494;8.530;2023-03-14T11:11:21;3.45;;;0.50;;
27402;SDS011;14862;49.494;8.530;2023-03-14T11:21:38;1.17;;;0.28;;
27402;SDS011;14862;49.494;8.530;2023-03-14T11:26:38;1.27;;;0.50;;
27402;SDS011;14862;49.494;8.530;2023-03-14T11:29:19;1.08;;;0.40;;
27402;SDS011;14862;49.494;8.530;2023-03-14T11:31:45;1.75;;;0.47;;
27402;SDS011;14862;49.494;8.530;2023-03-14T11:36:51;0.80;;;0.47;;
27402;SDS011;14862;49.494;8.530;2023-03-14T11:39:18;1.08;;;0.55;;
27402;SDS011;14862;49.494;8.530;2023-03-14T11:41:45;1.65;;;0.40;;
27402;SDS011;14862;49.494;8.530;2023-03-14T11:44:30;0.98;;;0.60;;
27402;SDS011;14862;49.494;8.530;2023-03-14T11:47:08;0.85;;;0.70;;
27402;SDS011;14862;49.494;8.530;2023-03-14T11:49:40;3.70;;;0.98;;
27402;SDS011;14862;49.494;8.530;2023-03-14T11:52:18;0.93;;;0.90;;
27402;SDS011;14862;49.494;8.530;2023-03-14T11:54:47;1.88;;;1.08;;
27402;SDS011;14862;49.494;8.530;2023-03-14T11:57:15;0.63;;;0.63;;
27402;SDS011;14862;49.494;8.530;2023-03-14T12:02:19;0.82;;;0.50;;
27402;SDS011;14862;49.494;8.530;2023-03-14T12:07:21;1.00;;;0.60;;
27402;SDS011;14862;49.494;8.530;2023-03-14T12:09:49;0.38;;;0.38;;
27402;SDS011;14862;49.494;8.530;2023-03-14T12:12:22;0.80;;;0.80;;
27402;SDS011;14862;49.494;8.530;2023-03-14T12:14:55;1.08;;;0.75;;
27402;SDS011;14862;49.494;8.530;2023-03-14T12:17:23;0.95;;;0.70;;
27402;SDS011;14862;49.494;8.530;2023-03-14T12:22:35;1.77;;;0.35;;
27402;SDS011;14862;49.494;8.530;2023-03-14T12:25:13;1.38;;;0.52;;
27402;SDS011;14862;49.494;8.530;2023-03-14T12:30:15;1.70;;;0.52;;
27402;SDS011;14862;49.494;8.530;2023-03-14T12:35:07;0.30;;;0.30;;
27402;SDS011;14862;49.494;8.530;2023-03-14T12:37:36;1.58;;;0.40;;
27402;SDS011;14862;49.494;8.530;2023-03-14T12:42:42;0.47;;;0.47;;
27402;SDS011;14862;49.494;8.530;2023-03-14T12:50:20;1.65;;;0.50;;
27402;SDS011;14862;49.494;8.530;2023-03-14T12:53:02;1.48;;;0.45;;
27402;SDS011;14862;49.494;8.530;2023-03-14T12:58:07;0.40;;;0.40;;
27402;SDS011;14862;49.494;8.530;2023-03-14T13:00:38;0.30;;;0.30;;
27402;SDS011;14862;49.494;8.530;2023-03-14T13:08:04;1.65;;;0.50;;
27402;SDS011;14862;49.494;8.530;2023-03-14T13:10:30;4.05;;;0.70;;
27402;SDS011;14862;49.494;8.530;2023-03-14T13:13:03;1.15;;;0.80;;
27402;SDS011;14862;49.494;8.530;2023-03-14T13:15:38;2.85;;;0.70;;
27402;SDS011;14862;49.494;8.530;2023-03-14T13:20:36;0.93;;;0.90;;
27402;SDS011;14862;49.494;8.530;2023-03-14T13:23:03;1.20;;;0.90;;
27402;SDS011;14862;49.494;8.530;2023-03-14T13:25:29;1.88;;;1.17;;
27402;SDS011;14862;49.494;8.530;2023-03-14T13:27:54;1.85;;;0.77;;
27402;SDS011;14862;49.494;8.530;2023-03-14T13:30:22;1.73;;;0.90;;
27402;SDS011;14862;49.494;8.530;2023-03-14T13:32:48;2.05;;;0.82;;
27402;SDS011;14862;49.494;8.530;2023-03-14T13:35:15;0.82;;;0.73;;
27402;SDS011;14862;49.494;8.530;2023-03-14T13:37:40;2.00;;;0.93;;
27402;SDS011;14862;49.494;8.530;2023-03-14T13:40:17;1.70;;;1.13;;
27402;SDS011;14862;49.494;8.530;2023-03-14T13:42:43;2.65;;;1.30;;
27402;SDS011;14862;49.494;8.530;2023-03-14T13:45:09;1.48;;;0.90;;
27402;SDS011;14862;49.494;8.530;2023-03-14T13:47:37;1.92;;;1.02;;
27402;SDS011;14862;49.494;8.530;2023-03-14T13:50:03;2.10;;;0.75;;
27402;SDS011;14862;49.494;8.530;2023-03-14T13:52:30;4.60;;;1.00;;
27402;SDS011;14862;49.494;8.530;2023-03-14T13:54:56;2.90;;;1.00;;
27402;SDS011;14862;49.494;8.530;2023-03-14T13:57:22;2.95;;;1.13;;
27402;SDS011;14862;49.494;8.530;2023-03-14T14:00:00;2.20;;;0.93;;
27402;SDS011;14862;49.494;8.530;2023-03-14T14:02:26;6.13;;;1.23;;
27402;SDS011;14862;49.494;8.530;2023-03-14T14:04:52;4.82;;;0.80;;
27402;SDS011;14862;49.494;8.530;2023-03-14T14:07:17;2.47;;;1.10;;
27402;SDS011;14862;49.494;8.530;2023-03-14T14:09:47;2.47;;;0.80;;
27402;SDS011;14862;49.494;8.530;2023-03-14T14:14:40;1.65;;;1.00;;
27402;SDS011;14862;49.494;8.530;2023-03-14T14:17:08;3.08;;;0.75;;
27402;SDS011;14862;49.494;8.530;2023-03-14T14:19:35;0.70;;;0.65;;
27402;SDS011;14862;49.494;8.530;2023-03-14T14:22:00;3.85;;;1.52;;
27402;SDS011;14862;49.494;8.530;2023-03-14T14:24:28;5.13;;;0.90;;
27402;SDS011;14862;49.494;8.530;2023-03-14T14:26:54;1.75;;;0.88;;
27402;SDS011;14862;49.494;8.530;2023-03-14T14:29:27;4.38;;;1.10;;
27402;SDS011;14862;49.494;8.530;2023-03-14T14:34:47;4.03;;;1.02;;
27402;SDS011;14862;49.494;8.530;2023-03-14T14:39:45;5.38;;;1.25;;
27402;SDS011;14862;49.494;8.530;2023-03-14T14:42:14;1.70;;;0.65;;
27402;SDS011;14862;49.494;8.530;2023-03-14T14:44:40;1.10;;;0.80;;
27402;SDS011;14862;49.494;8.530;2023-03-14T14:47:12;2.58;;;0.75;;
27402;SDS011;14862;49.494;8.530;2023-03-14T14:49:37;1.63;;;1.00;;
27402;SDS011;14862;49.494;8.530;2023-03-14T14:52:05;2.03;;;0.70;;
27402;SDS011;14862;49.494;8.530;2023-03-14T14:54:33;2.78;;;0.73;;
27402;SDS011;14862;49.494;8.530;2023-03-14T14:57:01;3.90;;;0.80;;
27402;SDS011;14862;49.494;8.530;2023-03-14T14:59:27;1.90;;;0.60;;
27402;SDS011;14862;49.494;8.530;2023-03-14T15:02:01;3.83;;;0.90;;
27402;SDS011;14862;49.494;8.530;2023-03-14T15:04:27;4.10;;;1.10;;
27402;SDS011;14862;49.494;8.530;2023-03-14T15:06:54;1.20;;;0.73;;
27402;SDS011;14862;49.494;8.530;2023-03-14T15:09:20;1.02;;;0.52;;
27402;SDS011;14862;49.494;8.530;2023-03-14T15:11:45;1.15;;;1.00;;
27402;SDS011;14862;49.494;8.530;2023-03-14T15:14:11;5.65;;;0.60;;
27402;SDS011;14862;49.494;8.530;2023-03-14T15:16:36;2.28;;;0.85;;
27402;SDS011;14862;49.494;8.530;2023-03-14T15:19:03;4.43;;;1.08;;
27402;SDS011;14862;49.494;8.530;2023-03-14T15:21:31;1.50;;;0.85;;
27402;SDS011;14862;49.494;8.530;2023-03-14T15:23:56;2.10;;;0.90;;
27402;SDS011;14862;49.494;8.530;2023-03-14T15:26:22;2.88;;;0.82;;
27402;SDS011;14862;49.494;8.530;2023-03-14T15:28:48;1.83;;;0.70;;
27402;SDS011;14862;49.494;8.530;2023-03-14T15:31:13;4.97;;;0.93;;
27402;SDS011;14862;49.494;8.530;2023-03-14T15:33:40;2.13;;;0.70;;
27402;SDS011;14862;49.494;8.530;2023-03-14T15:39:00;2.50;;;0.95;;
27402;SDS011;14862;49.494;8.530;2023-03-14T15:41:26;2.72;;;0.90;;
27402;SDS011;14862;49.494;8.530;2023-03-14T15:43:52;2.40;;;0.98;;
27402;SDS011;14862;49.494;8.530;2023-03-14T15:46:17;3.10;;;0.80;;
27402;SDS011;14862;49.494;8.530;2023-03-14T15:48:44;2.30;;;0.80;;
27402;SDS011;14862;49.494;8.530;2023-03-14T15:51:09;5.25;;;0.70;;
27402;SDS011;14862;49.494;8.530;2023-03-14T15:53:35;3.55;;;1.00;;